createdAt,value
2023-02-02T00:01:24.204Z,100.00
2023-02-02T00:04:39.680Z,100.00
2023-02-02T00:07:59.674Z,100.00
2023-02-02T00:11:12.698Z,100.00
2023-02-02T00:14:25.692Z,100.00
2023-02-02T00:17:38.109Z,100.00
2023-02-02T00:20:50.199Z,100.00
2023-02-02T00:27:43.508Z,100.00
2023-02-02T00:30:56.064Z,100.00
2023-02-02T00:34:08.726Z,100.00
2023-02-02T00:37:21.529Z,100.00
2023-02-02T00:40:35.470Z,100.00
2023-02-02T00:43:50.131Z,100.00
2023-02-02T00:47:02.371Z,100.00
2023-02-02T00:50:22.095Z,100.00
2023-02-02T00:53:35.624Z,100.00
2023-02-02T00:56:49.104Z,100.00
2023-02-02T01:00:01.321Z,100.00
2023-02-02T01:03:14.189Z,100.00
2023-02-02T01:10:10.008Z,100.00
2023-02-02T01:13:22.263Z,100.00
2023-02-02T01:16:34.732Z,100.00
2023-02-02T01:19:47.084Z,100.00
2023-02-02T01:23:01.167Z,100.00
2023-02-02T01:26:17.523Z,100.00
2023-02-02T01:29:30.135Z,100.00
2023-02-02T01:32:42.189Z,100.00
2023-02-02T01:35:56.612Z,100.00
2023-02-02T01:39:09.506Z,100.00
2023-02-02T01:42:27.866Z,100.00
2023-02-02T01:45:40.274Z,100.00
2023-02-02T01:48:56.803Z,100.00
2023-02-02T01:52:10.267Z,100.00
2023-02-02T01:55:26.719Z,100.00
2023-02-02T01:58:43.745Z,100.00
2023-02-02T02:01:57.905Z,100.00
2023-02-02T02:05:13.025Z,100.00
2023-02-02T02:08:28.146Z,100.00
2023-02-02T02:11:42.171Z,100.00
2023-02-02T02:15:11.651Z,100.00
2023-02-02T02:18:32.943Z,100.00
2023-02-02T02:22:12.438Z,100.00
2023-02-02T02:26:08.677Z,100.00
2023-02-02T02:29:53.329Z,100.00
2023-02-02T02:33:10.279Z,100.00
2023-02-02T02:36:29.270Z,100.00
2023-02-02T02:39:46.697Z,100.00
2023-02-02T02:43:11.212Z,100.00
2023-02-02T02:46:25.404Z,100.00
2023-02-02T02:49:37.979Z,100.00
2023-02-02T02:52:53.445Z,100.00
2023-02-02T02:56:13.354Z,100.00
2023-02-02T02:59:34.188Z,100.00
2023-02-02T03:02:52.522Z,100.00
2023-02-02T03:06:13.001Z,100.00
2023-02-02T03:09:30.499Z,100.00
2023-02-02T03:12:52.609Z,100.00
2023-02-02T03:16:06.166Z,100.00
2023-02-02T03:19:20.149Z,100.00
2023-02-02T03:22:32.900Z,100.00
2023-02-02T03:25:46.725Z,100.00
2023-02-02T03:29:02.887Z,100.00
2023-02-02T03:32:15.608Z,100.00
2023-02-02T03:35:28.950Z,100.00
2023-02-02T03:38:41.396Z,100.00
2023-02-02T03:41:53.538Z,100.00
2023-02-02T03:45:14.663Z,100.00
2023-02-02T03:48:29.149Z,100.00
2023-02-02T03:51:43.168Z,100.00
2023-02-02T03:55:06.469Z,100.00
2023-02-02T03:58:27.044Z,100.00
2023-02-02T04:01:39.313Z,100.00
2023-02-02T04:04:52.100Z,100.00
2023-02-02T04:08:09.865Z,100.00
2023-02-02T04:11:25.418Z,100.00
2023-02-02T04:14:37.942Z,100.00
2023-02-02T04:17:52.806Z,100.00
2023-02-02T04:21:08.880Z,100.00
2023-02-02T04:24:22.348Z,100.00
2023-02-02T04:42:35.164Z,100.00
2023-02-02T04:49:58.013Z,100.00
2023-02-02T04:53:24.100Z,100.00
2023-02-02T04:56:36.595Z,100.00
2023-02-02T04:59:49.010Z,100.00
2023-02-02T05:03:01.332Z,100.00
2023-02-02T05:06:15.869Z,100.00
2023-02-02T05:09:28.364Z,100.00
2023-02-02T05:12:40.411Z,100.00
2023-02-02T05:15:52.472Z,100.00
2023-02-02T05:19:04.849Z,100.00
2023-02-02T05:22:17.009Z,100.00
2023-02-02T05:25:42.486Z,100.00
2023-02-02T05:28:55.145Z,100.00
2023-02-02T05:32:07.513Z,100.00
2023-02-02T05:35:19.937Z,100.00
2023-02-02T05:38:32.090Z,100.00
2023-02-02T05:41:44.476Z,100.00
2023-02-02T05:45:05.367Z,100.00
2023-02-02T06:44:49.351Z,100.00
2023-02-02T06:51:39.842Z,100.00
2023-02-02T06:57:52.191Z,100.00
2023-02-02T07:01:09.855Z,100.00
2023-02-02T07:04:22.631Z,100.00
2023-02-02T07:11:13.953Z,100.00
2023-02-02T07:13:53.372Z,100.00
2023-02-02T07:17:05.493Z,100.00
2023-02-02T07:20:18.924Z,100.00
2023-02-02T07:23:31.087Z,100.00
2023-02-02T07:26:43.729Z,100.00
2023-02-02T07:29:55.870Z,100.00
2023-02-02T07:33:07.883Z,100.00
2023-02-02T07:36:23.569Z,100.00
2023-02-02T07:39:35.594Z,100.00
2023-02-02T07:42:47.661Z,100.00
2023-02-02T07:46:08.248Z,100.00
2023-02-02T07:49:23.427Z,100.00
2023-02-02T07:52:36.589Z,100.00
2023-02-02T07:55:48.657Z,100.00
2023-02-02T07:59:02.397Z,100.00
2023-02-02T08:02:15.726Z,100.00
2023-02-02T08:05:28.049Z,100.00
2023-02-02T08:08:40.355Z,100.00
2023-02-02T08:11:52.697Z,100.00
2023-02-02T08:15:04.706Z,100.00
2023-02-02T08:18:17.116Z,100.00
2023-02-02T08:21:29.584Z,100.00
2023-02-02T08:24:43.034Z,100.00
2023-02-02T08:27:58.883Z,100.00
2023-02-02T08:31:15.442Z,100.00
2023-02-02T08:34:27.543Z,100.00
2023-02-02T08:37:39.607Z,100.00
2023-02-02T08:40:53.018Z,100.00
2023-02-02T08:44:05.004Z,100.00
2023-02-02T08:47:17.248Z,100.00
2023-02-02T08:50:29.440Z,100.00
2023-02-02T08:53:41.987Z,100.00
2023-02-02T08:56:54.125Z,100.00
2023-02-02T09:00:06.877Z,100.00
2023-02-02T09:03:19.203Z,100.00
2023-02-02T09:06:35.361Z,100.00
2023-02-02T09:09:47.534Z,100.00
2023-02-02T09:12:59.591Z,100.00
2023-02-02T09:16:15.196Z,100.00
2023-02-02T09:19:27.252Z,100.00
2023-02-02T09:22:39.439Z,100.00
2023-02-02T09:25:51.489Z,100.00
2023-02-02T09:29:05.774Z,100.00
2023-02-02T09:32:18.072Z,100.00
2023-02-02T09:35:30.318Z,100.00
2023-02-02T09:38:43.313Z,100.00
2023-02-02T09:42:31.970Z,100.00
2023-02-02T09:45:52.404Z,100.00
2023-02-02T09:49:09.789Z,100.00
2023-02-02T09:52:27.697Z,100.00
2023-02-02T09:55:43.620Z,100.00
2023-02-02T09:59:10.198Z,100.00
2023-02-02T10:02:21.423Z,100.00
2023-02-02T10:05:40.131Z,100.00
2023-02-02T10:08:56.941Z,100.00
2023-02-02T10:12:20.352Z,100.00
2023-02-02T10:15:38.395Z,100.00
2023-02-02T10:18:54.762Z,100.00
2023-02-02T10:22:14.043Z,100.00
2023-02-02T10:25:28.719Z,100.00
2023-02-02T10:28:58.781Z,100.00
2023-02-02T10:32:21.579Z,100.00
2023-02-02T10:35:45.907Z,100.00
2023-02-02T10:39:03.635Z,100.00
2023-02-02T10:42:23.159Z,100.00
2023-02-02T10:45:35.577Z,100.00
2023-02-02T10:48:52.915Z,100.00
2023-02-02T10:52:12.548Z,100.00
2023-02-02T10:55:33.103Z,100.00
2023-02-02T10:58:50.999Z,100.00
2023-02-02T11:02:18.989Z,100.00
2023-02-02T11:05:41.280Z,100.00
2023-02-02T11:08:56.961Z,100.00
2023-02-02T11:12:20.199Z,100.00
2023-02-02T11:15:35.666Z,100.00
2023-02-02T11:18:48.978Z,100.00
2023-02-02T11:22:05.910Z,100.00
2023-02-02T11:25:26.690Z,100.00
2023-02-02T11:28:41.834Z,100.00
2023-02-02T11:31:53.828Z,100.00
2023-02-02T11:35:29.678Z,100.00
2023-02-02T11:38:41.707Z,100.00
2023-02-02T11:41:53.839Z,100.00
2023-02-02T11:45:07.365Z,100.00
2023-02-02T11:48:25.634Z,100.00
2023-02-02T11:51:39.379Z,100.00
2023-02-02T11:54:56.259Z,100.00
2023-02-02T11:58:32.287Z,100.00
2023-02-02T12:01:45.327Z,100.00
2023-02-02T12:05:01.243Z,100.00
2023-02-02T12:08:14.781Z,100.00
2023-02-02T12:11:41.938Z,100.00
2023-02-02T12:14:59.289Z,100.00
2023-02-02T12:18:21.346Z,100.00
2023-02-02T12:21:42.860Z,100.00
2023-02-02T12:25:00.185Z,100.00
2023-02-02T12:28:21.869Z,100.00
2023-02-02T12:31:40.939Z,100.00
2023-02-02T12:35:04.701Z,100.00
2023-02-02T12:38:25.041Z,100.00
2023-02-02T12:41:50.804Z,100.00
2023-02-02T12:45:31.808Z,100.00
2023-02-02T12:48:58.363Z,100.00
2023-02-02T12:52:35.757Z,100.00
2023-02-02T12:55:54.622Z,100.00
2023-02-02T12:59:13.992Z,100.00
2023-02-02T13:02:32.444Z,100.00
2023-02-02T13:05:59.690Z,100.00
2023-02-02T13:09:19.904Z,100.00
2023-02-02T13:12:33.928Z,100.00
2023-02-02T13:15:51.343Z,100.00
2023-02-02T13:19:08.445Z,100.00
2023-02-02T13:22:22.232Z,100.00
2023-02-02T13:25:39.724Z,100.00
2023-02-02T13:28:57.235Z,100.00
2023-02-02T13:32:15.816Z,100.00
2023-02-02T13:35:31.695Z,100.00
2023-02-02T13:38:45.792Z,100.00
2023-02-02T13:42:00.173Z,100.00
2023-02-02T13:45:33.070Z,100.00
2023-02-02T13:48:55.196Z,100.00
2023-02-02T13:52:37.037Z,100.00
2023-02-02T13:56:30.328Z,100.00
2023-02-02T13:59:58.841Z,100.00
2023-02-02T14:03:25.767Z,100.00
2023-02-02T14:06:56.319Z,100.00
2023-02-02T14:10:09.212Z,100.00
2023-02-02T14:13:54.590Z,100.00
2023-02-02T14:17:09.501Z,100.00
2023-02-02T14:20:52.197Z,100.00
2023-02-02T14:24:05.131Z,100.00
2023-02-02T14:28:02.793Z,100.00
2023-02-02T14:31:58.723Z,100.00
2023-02-02T14:35:55.838Z,100.00
2023-02-02T14:39:26.872Z,100.00
2023-02-02T14:43:08.741Z,100.00
2023-02-02T14:46:51.105Z,100.00
2023-02-02T14:50:06.888Z,100.00
2023-02-02T14:53:30.172Z,100.00
2023-02-02T14:56:54.665Z,100.00
2023-02-02T15:00:08.860Z,100.00
2023-02-02T15:03:55.146Z,100.00
2023-02-02T15:07:39.607Z,100.00
2023-02-02T15:11:34.749Z,100.00
2023-02-02T15:14:52.155Z,100.00
2023-02-02T15:18:17.581Z,100.00
2023-02-02T15:21:35.535Z,100.00
2023-02-02T15:24:54.400Z,100.00
2023-02-02T15:28:15.536Z,100.00
2023-02-02T15:31:34.504Z,100.00
2023-02-02T15:34:53.238Z,100.00
2023-02-02T15:38:10.275Z,100.00
2023-02-02T15:41:32.569Z,100.00
2023-02-02T15:44:46.549Z,100.00
2023-02-02T15:48:05.004Z,100.00
2023-02-02T15:51:24.929Z,100.00
2023-02-02T15:54:42.200Z,100.00
2023-02-02T15:57:56.366Z,100.00
2023-02-02T16:01:20.578Z,98.08
2023-02-02T16:04:41.867Z,94.31
2023-02-02T16:08:05.572Z,93.49
2023-02-02T16:11:21.435Z,93.69
2023-02-02T16:14:36.376Z,92.39
2023-02-02T16:17:48.728Z,92.89
2023-02-02T16:21:03.939Z,91.62
2023-02-02T16:24:21.888Z,90.70
2023-02-02T16:27:35.892Z,90.36
2023-02-02T16:30:52.917Z,89.93
2023-02-02T16:34:05.441Z,89.55
2023-02-02T16:37:27.439Z,90.31
2023-02-02T16:40:43.250Z,89.80
2023-02-02T16:43:58.226Z,90.54
2023-02-02T16:47:19.505Z,91.35
2023-02-02T16:50:57.737Z,91.61
2023-02-02T16:54:26.803Z,93.03
2023-02-02T16:57:43.471Z,94.20
2023-02-02T17:01:16.805Z,93.64
2023-02-02T17:04:32.431Z,91.41
2023-02-02T17:08:04.648Z,90.45
2023-02-02T17:11:34.317Z,88.95
2023-02-02T17:15:19.679Z,86.65
2023-02-02T17:18:32.807Z,85.08
2023-02-02T17:21:48.556Z,84.58
2023-02-02T17:25:00.914Z,85.88
2023-02-02T17:28:17.164Z,85.98
2023-02-02T17:31:29.617Z,87.07
2023-02-02T17:34:41.918Z,87.91
2023-02-02T17:37:54.283Z,87.94
2023-02-02T17:41:08.711Z,87.68
2023-02-02T17:44:20.983Z,88.78
2023-02-02T17:47:33.273Z,88.79
2023-02-02T17:54:27.064Z,87.56
2023-02-02T17:57:39.230Z,88.81
2023-02-02T18:00:53.499Z,88.23
2023-02-02T18:04:06.792Z,87.67
2023-02-02T18:07:19.043Z,87.17
2023-02-02T18:10:31.520Z,87.66
2023-02-02T18:25:25.528Z,87.18
2023-02-02T18:28:38.002Z,87.75
2023-02-02T18:31:50.310Z,87.78
2023-02-02T18:35:02.640Z,87.90
2023-02-02T18:38:14.997Z,87.84
2023-02-02T18:45:38.324Z,87.25
2023-02-02T18:48:51.003Z,87.27
2023-02-02T18:52:03.717Z,88.37
2023-02-02T18:55:19.953Z,88.18
2023-02-02T18:58:32.342Z,87.72
2023-02-02T19:01:44.775Z,86.92
2023-02-02T19:05:12.272Z,87.82
2023-02-02T19:08:24.844Z,88.71
2023-02-02T19:11:43.057Z,88.51
2023-02-02T19:14:56.043Z,89.28
2023-02-02T19:18:11.882Z,89.65
2023-02-02T19:21:24.390Z,89.93
2023-02-02T19:24:43.055Z,89.87
2023-02-02T19:27:55.434Z,89.82
2023-02-02T19:31:13.170Z,90.77
2023-02-02T19:34:28.680Z,90.38
2023-02-02T19:37:46.317Z,90.21
2023-02-02T19:40:58.321Z,91.01
2023-02-02T19:44:19.018Z,92.34
2023-02-02T19:47:36.570Z,94.30
2023-02-02T19:50:50.623Z,95.68
2023-02-02T19:54:06.615Z,96.20
2023-02-02T19:57:28.007Z,97.30
2023-02-02T20:00:45.089Z,97.60
2023-02-02T20:03:58.155Z,98.10
2023-02-02T20:07:18.557Z,98.21
2023-02-02T20:10:33.256Z,97.42
2023-02-02T20:13:49.830Z,96.11
2023-02-02T20:20:44.390Z,96.34
2023-02-02T20:23:56.626Z,96.38
2023-02-02T20:27:18.521Z,97.94
2023-02-02T20:30:34.769Z,100.00
2023-02-02T20:33:52.993Z,100.00
2023-02-02T20:37:16.728Z,100.00
2023-02-02T20:40:35.554Z,100.00
2023-02-02T20:43:48.192Z,100.00
2023-02-02T20:47:02.626Z,100.00
